createdAt,value
2022-08-19T00:01:39.958Z,19.94
2022-08-19T00:04:09.740Z,19.81
2022-08-19T00:06:38.495Z,19.76
2022-08-19T00:09:10.724Z,20.02
2022-08-19T00:11:39.299Z,20.01
2022-08-19T00:14:09.500Z,19.87
2022-08-19T00:16:37.546Z,19.67
2022-08-19T00:19:05.184Z,19.54
2022-08-19T00:21:32.796Z,19.67
2022-08-19T00:24:01.049Z,19.70
2022-08-19T00:26:30.320Z,20.03
2022-08-19T00:28:58.144Z,20.19
2022-08-19T00:31:26.402Z,20.96
2022-08-19T00:33:53.940Z,21.74
2022-08-19T00:36:22.027Z,22.06
2022-08-19T00:38:50.351Z,22.59
2022-08-19T00:41:22.127Z,22.72
2022-08-19T00:44:01.849Z,22.39
2022-08-19T00:46:30.526Z,22.04
2022-08-19T00:48:58.910Z,21.56
2022-08-19T00:51:27.468Z,21.59
2022-08-19T00:53:57.009Z,21.13
2022-08-19T00:56:25.304Z,21.33
2022-08-19T00:58:52.853Z,21.82
2022-08-19T01:01:21.811Z,22.00
2022-08-19T01:03:57.088Z,22.48
2022-08-19T01:06:26.411Z,22.84
2022-08-19T01:08:54.092Z,23.40
2022-08-19T01:11:21.798Z,23.62
2022-08-19T01:13:50.456Z,22.70
2022-08-19T01:16:21.754Z,22.92
2022-08-19T01:18:50.030Z,22.38
2022-08-19T01:21:23.880Z,21.40
2022-08-19T01:23:52.844Z,21.75
2022-08-19T01:26:23.693Z,21.42
2022-08-19T01:28:54.740Z,21.62
2022-08-19T01:31:31.426Z,21.24
2022-08-19T01:34:00.926Z,21.27
2022-08-19T01:36:33.087Z,20.87
2022-08-19T01:39:04.770Z,20.80
2022-08-19T01:41:32.342Z,20.64
2022-08-19T01:44:13.479Z,20.68
2022-08-19T01:46:49.079Z,20.63
2022-08-19T01:49:18.311Z,20.63
2022-08-19T01:51:45.993Z,20.53
2022-08-19T01:54:22.852Z,20.67
2022-08-19T01:57:01.491Z,20.80
2022-08-19T01:59:29.914Z,20.60
2022-08-19T02:01:57.615Z,20.48
2022-08-19T02:04:26.393Z,20.22
2022-08-19T02:06:53.963Z,20.25
2022-08-19T02:09:22.819Z,20.19
2022-08-19T02:11:50.364Z,20.06
2022-08-19T02:14:17.857Z,20.03
2022-08-19T02:16:45.398Z,20.04
2022-08-19T02:19:12.888Z,20.00
2022-08-19T02:21:40.472Z,20.35
2022-08-19T02:24:08.320Z,20.45
2022-08-19T02:26:37.185Z,20.25
2022-08-19T02:29:05.458Z,20.25
2022-08-19T02:31:33.226Z,20.41
2022-08-19T02:34:00.734Z,20.22
2022-08-19T02:36:28.734Z,20.23
2022-08-19T02:38:56.864Z,20.10
2022-08-19T02:41:27.859Z,20.50
2022-08-19T02:44:14.297Z,21.11
2022-08-19T02:46:46.965Z,22.14
2022-08-19T02:49:17.200Z,22.28
2022-08-19T02:51:47.061Z,22.29
2022-08-19T02:54:15.771Z,22.26
2022-08-19T02:56:44.690Z,21.85
2022-08-19T02:59:13.805Z,21.96
2022-08-19T03:01:43.125Z,21.65
2022-08-19T03:04:13.291Z,21.09
2022-08-19T03:06:42.571Z,21.36
2022-08-19T03:09:10.799Z,21.73
2022-08-19T03:11:39.275Z,21.82
2022-08-19T03:14:09.479Z,21.91
2022-08-19T03:16:44.181Z,21.42
2022-08-19T03:19:11.707Z,21.73
2022-08-19T03:21:39.247Z,21.67
2022-08-19T03:24:09.689Z,21.81
2022-08-19T03:26:41.254Z,21.84
2022-08-19T03:29:10.322Z,21.68
2022-08-19T03:31:50.974Z,22.38
2022-08-19T03:34:22.672Z,22.41
2022-08-19T03:36:50.548Z,22.63
2022-08-19T03:39:18.332Z,23.00
2022-08-19T03:41:48.538Z,23.02
2022-08-19T03:44:19.265Z,23.12
2022-08-19T03:46:49.418Z,23.28
2022-08-19T03:49:18.734Z,23.27
2022-08-19T03:51:49.491Z,23.15
2022-08-19T03:54:19.284Z,22.75
2022-08-19T03:56:48.256Z,22.95
2022-08-19T03:59:19.490Z,23.18
2022-08-19T04:01:48.726Z,22.97
2022-08-19T04:04:16.230Z,22.92
2022-08-19T04:06:45.242Z,23.05
2022-08-19T04:09:13.552Z,23.20
2022-08-19T04:11:45.007Z,23.36
2022-08-19T04:14:14.961Z,23.49
2022-08-19T04:16:43.597Z,23.50
2022-08-19T04:19:13.153Z,23.25
2022-08-19T04:21:40.885Z,23.06
2022-08-19T04:24:08.574Z,22.94
2022-08-19T04:26:38.513Z,23.07
2022-08-19T04:29:12.351Z,23.12
2022-08-19T04:31:41.885Z,23.17
2022-08-19T04:34:13.593Z,23.23
2022-08-19T04:36:45.396Z,23.30
2022-08-19T04:39:16.614Z,23.33
2022-08-19T04:42:02.059Z,23.34
2022-08-19T04:44:31.433Z,23.45
2022-08-19T04:47:01.500Z,23.31
2022-08-19T04:49:30.915Z,23.36
2022-08-19T04:51:58.433Z,23.37
2022-08-19T04:54:38.834Z,23.55
2022-08-19T04:57:10.529Z,23.61
2022-08-19T04:59:39.628Z,23.50
2022-08-19T05:02:09.310Z,23.79
2022-08-19T05:04:40.089Z,23.82
2022-08-19T05:07:08.623Z,23.93
2022-08-19T05:09:58.580Z,24.06
2022-08-19T05:12:25.847Z,24.14
2022-08-19T05:14:58.235Z,24.10
2022-08-19T05:17:28.010Z,24.13
2022-08-19T05:20:15.918Z,24.14
2022-08-19T05:22:44.744Z,24.16
2022-08-19T05:25:15.014Z,23.87
2022-08-19T05:27:43.740Z,23.73
2022-08-19T05:30:12.784Z,23.66
2022-08-19T05:32:40.839Z,23.80
2022-08-19T05:35:10.575Z,23.90
2022-08-19T05:37:40.444Z,23.87
2022-08-19T05:40:09.254Z,23.97
2022-08-19T05:42:37.010Z,23.22
2022-08-19T05:45:05.370Z,22.83
2022-08-19T05:47:33.099Z,22.45
2022-08-19T05:50:02.805Z,22.06
2022-08-19T05:52:34.045Z,21.83
2022-08-19T05:55:01.871Z,21.83
2022-08-19T05:57:29.756Z,22.31
2022-08-19T05:59:59.023Z,21.82
2022-08-19T06:02:26.959Z,22.04
2022-08-19T06:04:54.573Z,21.45
2022-08-19T06:07:22.247Z,21.78
2022-08-19T06:10:00.299Z,21.40
2022-08-19T06:12:32.580Z,21.27
2022-08-19T06:15:01.975Z,21.66
2022-08-19T06:17:31.274Z,21.56
2022-08-19T06:19:59.803Z,21.74
2022-08-19T06:22:28.174Z,21.31
2022-08-19T06:24:57.581Z,21.56
2022-08-19T06:27:25.447Z,21.19
2022-08-19T06:29:53.066Z,21.15
2022-08-19T06:32:20.600Z,20.96
2022-08-19T06:34:48.310Z,21.15
2022-08-19T06:37:16.116Z,21.50
2022-08-19T06:39:45.894Z,21.94
2022-08-19T06:42:17.624Z,21.74
2022-08-19T06:44:49.120Z,22.04
2022-08-19T06:47:23.901Z,22.38
2022-08-19T06:50:03.146Z,22.55
2022-08-19T06:52:31.140Z,22.51
2022-08-19T06:55:01.920Z,21.35
2022-08-19T06:57:35.803Z,21.48
2022-08-19T07:00:04.882Z,21.77
2022-08-19T07:02:32.479Z,22.19
2022-08-19T07:05:02.188Z,22.57
2022-08-19T07:07:29.841Z,23.29
2022-08-19T07:09:59.124Z,22.99
2022-08-19T07:12:30.172Z,22.23
2022-08-19T07:14:59.702Z,23.05
2022-08-19T07:17:27.667Z,22.17
2022-08-19T07:19:56.172Z,22.80
2022-08-19T07:22:24.638Z,22.43
2022-08-19T07:24:52.310Z,22.16
2022-08-19T07:27:24.858Z,22.29
2022-08-19T07:29:56.243Z,22.51
2022-08-19T07:32:27.473Z,22.02
2022-08-19T07:34:56.399Z,21.97
2022-08-19T07:37:25.210Z,22.16
2022-08-19T07:39:54.054Z,22.94
2022-08-19T07:42:22.090Z,23.56
2022-08-19T07:44:50.338Z,23.01
2022-08-19T07:47:48.255Z,22.31
2022-08-19T07:50:12.260Z,22.92
2022-08-19T07:52:40.789Z,23.30
2022-08-19T07:55:40.428Z,23.71
2022-08-19T07:57:58.880Z,23.62
2022-08-19T08:00:27.014Z,23.99
2022-08-19T08:02:55.838Z,24.37
2022-08-19T08:05:44.046Z,24.41
2022-08-19T08:08:44.116Z,24.16
2022-08-19T08:11:16.323Z,23.72
2022-08-19T08:13:45.499Z,23.93
2022-08-19T08:16:14.115Z,23.00
2022-08-19T08:18:50.555Z,22.51
2022-08-19T08:21:22.074Z,22.59
2022-08-19T08:23:51.086Z,22.68
2022-08-19T08:26:19.661Z,22.42
2022-08-19T08:28:49.424Z,22.37
2022-08-19T08:31:17.251Z,22.56
2022-08-19T08:33:44.935Z,22.70
2022-08-19T08:36:14.153Z,22.70
2022-08-19T08:38:46.297Z,22.67
2022-08-19T08:41:21.616Z,22.57
2022-08-19T08:43:52.892Z,22.34
2022-08-19T08:46:31.793Z,21.39
2022-08-19T08:49:06.680Z,21.45
2022-08-19T08:51:37.303Z,22.05
2022-08-19T08:54:09.935Z,22.13
2022-08-19T08:56:40.055Z,22.17
2022-08-19T08:59:18.864Z,21.98
2022-08-19T09:01:46.565Z,21.93
2022-08-19T09:04:15.427Z,21.86
2022-08-19T09:06:50.248Z,21.90
2022-08-19T09:09:29.313Z,21.86
2022-08-19T09:12:04.025Z,21.92
2022-08-19T09:14:51.107Z,21.84
2022-08-19T09:17:21.185Z,22.07
2022-08-19T09:19:53.240Z,22.35
2022-08-19T09:22:25.783Z,22.82
2022-08-19T09:24:57.222Z,22.52
2022-08-19T09:27:42.407Z,23.16
2022-08-19T09:30:15.073Z,23.95
2022-08-19T09:32:43.922Z,23.27
2022-08-19T09:35:12.183Z,23.20
2022-08-19T09:37:40.318Z,23.43
2022-08-19T09:40:11.831Z,23.28
2022-08-19T09:42:50.216Z,23.10
2022-08-19T09:45:23.499Z,23.09
2022-08-19T09:47:54.284Z,22.43
2022-08-19T09:50:23.990Z,22.36
2022-08-19T09:52:54.097Z,21.77
2022-08-19T09:55:31.802Z,21.89
2022-08-19T09:58:01.550Z,22.05
2022-08-19T10:00:29.092Z,21.94
2022-08-19T10:02:56.638Z,21.85
2022-08-19T10:05:42.697Z,22.30
2022-08-19T10:08:13.304Z,22.13
2022-08-19T10:10:44.086Z,22.63
2022-08-19T10:13:15.148Z,22.61
2022-08-19T10:15:47.237Z,22.75
2022-08-19T10:18:16.635Z,22.56
2022-08-19T10:20:46.359Z,22.27
2022-08-19T10:23:20.045Z,21.95
2022-08-19T10:25:49.176Z,22.62
2022-08-19T10:28:19.158Z,22.81
2022-08-19T10:30:48.355Z,22.95
2022-08-19T10:33:16.091Z,23.38
2022-08-19T10:36:05.481Z,23.44
2022-08-19T10:38:33.162Z,23.05
2022-08-19T10:41:08.693Z,22.58
2022-08-19T10:43:38.072Z,22.84
2022-08-19T10:46:13.963Z,22.61
2022-08-19T10:48:45.087Z,22.67
2022-08-19T10:51:31.420Z,22.95
2022-08-19T10:54:00.128Z,22.99
2022-08-19T10:56:47.443Z,23.73
2022-08-19T10:59:16.130Z,23.58
2022-08-19T11:01:45.572Z,23.40
2022-08-19T11:04:14.620Z,22.43
2022-08-19T11:06:44.267Z,22.49
2022-08-19T11:09:12.771Z,22.81
2022-08-19T11:11:42.315Z,23.05
2022-08-19T11:14:10.604Z,23.19
2022-08-19T11:16:39.857Z,23.35
2022-08-19T11:19:09.872Z,22.97
2022-08-19T11:21:40.092Z,23.12
2022-08-19T11:24:10.543Z,22.81
2022-08-19T11:26:41.400Z,22.16
2022-08-19T11:29:13.321Z,21.95
2022-08-19T11:31:42.996Z,22.45
2022-08-19T11:34:14.169Z,23.04
2022-08-19T11:36:44.975Z,23.02
2022-08-19T11:39:14.456Z,22.90
2022-08-19T11:41:43.382Z,22.75
2022-08-19T11:44:10.917Z,22.72
2022-08-19T11:46:39.888Z,23.11
2022-08-19T11:49:13.877Z,22.71
2022-08-19T11:51:44.039Z,22.84
2022-08-19T11:54:13.120Z,23.20
2022-08-19T11:56:43.120Z,22.78
2022-08-19T11:59:14.663Z,22.29
2022-08-19T12:01:43.586Z,22.41
2022-08-19T12:04:11.889Z,22.71
2022-08-19T12:06:42.129Z,22.60
2022-08-19T12:09:12.012Z,22.67
2022-08-19T12:11:41.430Z,22.55
2022-08-19T12:14:15.039Z,22.41
2022-08-19T12:16:49.093Z,22.17
2022-08-19T12:19:22.365Z,22.77
2022-08-19T12:21:50.859Z,22.57
2022-08-19T12:24:23.739Z,22.73
2022-08-19T12:26:53.299Z,22.61
2022-08-19T12:29:30.509Z,22.48
2022-08-19T12:32:02.033Z,22.41
2022-08-19T12:34:31.731Z,22.15
2022-08-19T12:36:59.973Z,22.46
2022-08-19T12:39:27.622Z,22.83
2022-08-19T12:41:55.717Z,23.10
2022-08-19T12:44:29.232Z,22.56
2022-08-19T12:46:57.465Z,22.18
2022-08-19T12:49:52.498Z,22.02
2022-08-19T12:52:16.165Z,21.89
2022-08-19T12:54:45.026Z,22.22
2022-08-19T12:57:13.263Z,21.86
2022-08-19T12:59:42.301Z,21.93
2022-08-19T13:02:10.021Z,21.96
2022-08-19T13:04:41.428Z,22.17
2022-08-19T13:07:10.218Z,21.70
2022-08-19T13:09:37.995Z,21.73
2022-08-19T13:12:08.606Z,21.49
2022-08-19T13:14:36.275Z,21.64
2022-08-19T13:17:05.944Z,21.36
2022-08-19T13:19:33.578Z,21.70
2022-08-19T13:22:01.087Z,22.02
2022-08-19T13:24:33.652Z,21.86
2022-08-19T13:27:01.679Z,22.30
2022-08-19T13:29:47.176Z,21.89
2022-08-19T13:32:33.806Z,21.82
2022-08-19T13:35:03.229Z,21.94
2022-08-19T13:37:44.770Z,22.36
2022-08-19T13:40:16.930Z,22.72
2022-08-19T13:42:48.312Z,22.47
2022-08-19T13:45:17.497Z,23.12
2022-08-19T13:47:47.327Z,23.27
2022-08-19T13:50:18.473Z,23.05
2022-08-19T13:52:46.172Z,23.24
2022-08-19T13:55:14.612Z,23.04
2022-08-19T13:57:52.338Z,23.46
2022-08-19T14:00:20.466Z,23.69
2022-08-19T14:02:53.270Z,23.48
2022-08-19T14:05:21.930Z,22.88
2022-08-19T14:07:49.726Z,22.60
2022-08-19T14:10:17.854Z,22.70
2022-08-19T14:12:46.261Z,22.72
2022-08-19T14:15:14.526Z,23.01
2022-08-19T14:17:42.760Z,23.29
2022-08-19T14:20:17.765Z,23.33
2022-08-19T14:22:48.743Z,23.83
2022-08-19T14:25:19.443Z,23.69
2022-08-19T14:27:47.469Z,23.90
2022-08-19T14:30:17.894Z,23.22
2022-08-19T14:32:45.517Z,23.37
2022-08-19T14:35:16.764Z,22.78
2022-08-19T14:37:46.336Z,22.85
2022-08-19T14:40:14.864Z,22.85
2022-08-19T14:42:43.121Z,22.69
2022-08-19T14:45:11.666Z,23.29
2022-08-19T14:47:39.830Z,22.86
2022-08-19T14:50:10.575Z,22.94
2022-08-19T14:52:48.623Z,22.50
2022-08-19T14:55:17.470Z,22.18
2022-08-19T14:57:45.930Z,22.18
2022-08-19T15:00:14.943Z,22.06
2022-08-19T15:02:44.968Z,21.99
2022-08-19T15:05:13.564Z,21.55
2022-08-19T15:07:41.819Z,21.61
2022-08-19T15:10:14.231Z,21.91
2022-08-19T15:12:43.246Z,22.14
2022-08-19T15:15:14.529Z,22.19
2022-08-19T15:17:45.322Z,22.06
2022-08-19T15:20:19.119Z,22.54
2022-08-19T15:22:46.988Z,22.58
2022-08-19T15:25:19.402Z,22.14
2022-08-19T15:27:47.023Z,22.17
2022-08-19T15:30:21.839Z,22.34
2022-08-19T15:32:49.858Z,22.87
2022-08-19T15:35:19.376Z,23.07
2022-08-19T15:37:47.106Z,23.16
2022-08-19T15:40:16.047Z,22.33
2022-08-19T15:42:44.625Z,22.67
2022-08-19T15:45:12.977Z,22.80
2022-08-19T15:47:41.243Z,22.58
2022-08-19T15:50:11.088Z,22.38
2022-08-19T15:52:49.315Z,21.50
2022-08-19T15:55:33.521Z,21.41
2022-08-19T15:58:27.912Z,21.25
2022-08-19T16:01:14.513Z,21.13
2022-08-19T16:03:59.720Z,21.39
2022-08-19T16:06:27.448Z,21.47
2022-08-19T16:08:56.024Z,21.70
2022-08-19T16:11:29.352Z,21.81
2022-08-19T16:13:59.089Z,21.78
2022-08-19T16:16:33.691Z,21.29
2022-08-19T16:19:05.051Z,21.21
2022-08-19T16:21:34.306Z,21.25
2022-08-19T16:24:04.079Z,21.29
2022-08-19T16:26:34.781Z,21.08
2022-08-19T16:29:03.270Z,21.07
2022-08-19T16:31:37.535Z,20.85
2022-08-19T16:34:06.255Z,20.77
2022-08-19T16:36:33.833Z,20.81
2022-08-19T16:39:01.894Z,20.84
2022-08-19T16:41:30.060Z,20.92
2022-08-19T16:44:00.156Z,21.06
2022-08-19T16:46:28.047Z,21.14
2022-08-19T16:48:55.540Z,20.69
2022-08-19T16:51:23.244Z,20.64
2022-08-19T16:53:52.394Z,20.57
2022-08-19T16:56:21.156Z,20.69
2022-08-19T16:58:50.445Z,20.38
2022-08-19T17:01:19.557Z,20.35
2022-08-19T17:03:52.032Z,20.47
2022-08-19T17:06:22.438Z,20.44
2022-08-19T17:08:51.144Z,20.35
2022-08-19T17:11:19.630Z,20.36
2022-08-19T17:13:48.422Z,20.47
2022-08-19T17:16:16.424Z,20.57
2022-08-19T17:18:45.384Z,20.30
2022-08-19T17:21:13.385Z,20.11
2022-08-19T17:23:42.913Z,20.20
2022-08-19T17:26:17.094Z,20.10
2022-08-19T17:28:47.195Z,20.25
2022-08-19T17:31:15.144Z,20.22
2022-08-19T17:33:42.918Z,20.11
2022-08-19T17:36:17.445Z,20.37
2022-08-19T17:38:45.340Z,20.38
2022-08-19T17:41:12.930Z,20.12
2022-08-19T17:43:43.604Z,19.85
2022-08-19T17:46:18.155Z,19.80
2022-08-19T17:48:51.789Z,19.87
2022-08-19T17:51:25.137Z,19.91
2022-08-19T17:53:54.937Z,19.95
2022-08-19T17:56:23.753Z,20.04
2022-08-19T17:58:59.700Z,20.13
2022-08-19T18:01:43.961Z,20.50
2022-08-19T18:04:18.643Z,20.41
2022-08-19T18:06:53.343Z,20.12
2022-08-19T18:09:24.747Z,20.00
2022-08-19T18:11:54.239Z,19.69
2022-08-19T18:14:32.101Z,19.61
2022-08-19T18:17:02.856Z,19.58
2022-08-19T18:19:41.166Z,19.41
2022-08-19T18:22:13.185Z,19.48
2022-08-19T18:24:41.632Z,19.31
2022-08-19T18:27:10.060Z,19.38
2022-08-19T18:29:38.442Z,19.41
2022-08-19T18:32:07.036Z,19.28
2022-08-19T18:34:37.041Z,19.27
2022-08-19T18:37:04.686Z,19.42
2022-08-19T18:39:51.201Z,19.31
2022-08-19T18:42:51.867Z,19.22
2022-08-19T18:45:37.234Z,19.11
2022-08-19T18:48:27.250Z,19.13
2022-08-19T18:50:55.711Z,19.07
2022-08-19T18:53:23.296Z,19.06
2022-08-19T18:55:55.042Z,19.03
2022-08-19T18:58:26.116Z,19.17
2022-08-19T19:00:56.668Z,19.23
2022-08-19T19:03:24.678Z,19.27
2022-08-19T19:05:52.731Z,19.33
2022-08-19T19:08:20.415Z,19.15
2022-08-19T19:10:56.869Z,19.12
2022-08-19T19:13:24.403Z,19.08
2022-08-19T19:15:51.960Z,19.06
2022-08-19T19:18:19.493Z,18.88
2022-08-19T19:20:47.066Z,18.97
2022-08-19T19:23:14.607Z,19.04
2022-08-19T19:25:49.771Z,18.95
2022-08-19T19:28:23.861Z,19.03
2022-08-19T19:30:52.356Z,18.91
2022-08-19T19:33:20.384Z,18.93
2022-08-19T19:35:47.977Z,18.96
2022-08-19T19:38:15.715Z,18.99
2022-08-19T19:40:43.250Z,18.96
2022-08-19T19:43:10.848Z,18.94
2022-08-19T19:45:39.797Z,19.26
2022-08-19T19:48:08.293Z,19.09
2022-08-19T19:50:35.907Z,19.20
2022-08-19T19:53:03.479Z,19.07
2022-08-19T19:55:31.135Z,19.14
2022-08-19T19:57:58.699Z,19.04
2022-08-19T20:00:27.110Z,19.11
2022-08-19T20:02:56.112Z,19.30
2022-08-19T20:05:24.520Z,19.15
2022-08-19T20:08:11.517Z,19.01
2022-08-19T20:10:40.211Z,19.29
2022-08-19T20:13:08.979Z,19.27
2022-08-19T20:15:42.155Z,19.36
2022-08-19T20:18:14.284Z,19.12
2022-08-19T20:20:42.034Z,19.11
2022-08-19T20:23:09.779Z,19.12
2022-08-19T20:25:39.113Z,19.01
2022-08-19T20:28:06.662Z,18.96
2022-08-19T20:30:34.501Z,19.20
2022-08-19T20:33:06.775Z,19.12
2022-08-19T20:35:37.196Z,19.13
2022-08-19T20:38:08.692Z,19.28
2022-08-19T20:40:37.828Z,19.11
2022-08-19T20:43:08.719Z,19.18
2022-08-19T20:45:36.952Z,18.98
2022-08-19T20:48:06.379Z,19.02
2022-08-19T20:50:37.116Z,18.85
2022-08-19T20:53:10.521Z,18.98
2022-08-19T20:55:38.094Z,18.94
2022-08-19T20:58:05.775Z,18.92
2022-08-19T21:00:33.460Z,18.76
2022-08-19T21:03:01.054Z,18.69
2022-08-19T21:05:30.530Z,18.59
2022-08-19T21:08:00.122Z,18.60
2022-08-19T21:10:27.760Z,18.74
2022-08-19T21:12:55.421Z,18.61
2022-08-19T21:15:24.625Z,18.86
2022-08-19T21:17:52.432Z,18.75
2022-08-19T21:20:20.138Z,18.57
2022-08-19T21:22:47.749Z,18.35
2022-08-19T21:25:17.442Z,18.26
2022-08-19T21:27:45.113Z,18.26
2022-08-19T21:30:13.995Z,18.60
2022-08-19T21:32:41.548Z,18.72
2022-08-19T21:35:09.531Z,18.73
2022-08-19T21:37:38.710Z,18.58
2022-08-19T21:40:07.560Z,18.61
2022-08-19T21:42:37.679Z,18.60
2022-08-19T21:45:06.113Z,18.66
2022-08-19T21:47:33.622Z,18.73
2022-08-19T21:50:01.136Z,18.52
2022-08-19T21:52:28.962Z,18.77
2022-08-19T21:54:57.190Z,18.91
2022-08-19T21:57:25.225Z,18.51
2022-08-19T21:59:54.701Z,18.61
2022-08-19T22:02:22.446Z,18.88
2022-08-19T22:04:51.423Z,18.71
2022-08-19T22:07:22.886Z,18.92
2022-08-19T22:09:52.075Z,18.78
2022-08-19T22:12:23.958Z,18.63
2022-08-19T22:14:53.290Z,18.32
2022-08-19T22:17:23.312Z,18.13
2022-08-19T22:19:52.456Z,17.94
2022-08-19T22:22:25.935Z,17.76
2022-08-19T22:24:54.307Z,17.74
2022-08-19T22:27:22.049Z,17.81
2022-08-19T22:29:52.554Z,17.85
2022-08-19T22:32:28.122Z,17.77
2022-08-19T22:34:58.555Z,17.90
2022-08-19T22:37:26.863Z,17.92
2022-08-19T22:39:54.479Z,18.18
2022-08-19T22:42:22.495Z,18.18
2022-08-19T22:44:50.474Z,17.92
2022-08-19T22:47:18.648Z,17.98
2022-08-19T22:49:47.494Z,18.09
2022-08-19T22:52:18.267Z,18.15
2022-08-19T22:54:46.958Z,18.05
2022-08-19T22:57:14.984Z,17.90
2022-08-19T22:59:42.839Z,17.92
2022-08-19T23:02:10.642Z,17.74
2022-08-19T23:04:38.606Z,17.79
2022-08-19T23:07:07.547Z,17.67
2022-08-19T23:09:35.103Z,17.76
2022-08-19T23:12:04.961Z,17.89
2022-08-19T23:14:32.567Z,17.92
2022-08-19T23:17:01.422Z,17.98
2022-08-19T23:19:29.686Z,17.80
2022-08-19T23:21:57.574Z,17.86
2022-08-19T23:24:27.266Z,17.90
2022-08-19T23:27:12.627Z,17.76
2022-08-19T23:29:58.071Z,17.81
2022-08-19T23:32:25.942Z,17.86
2022-08-19T23:34:55.676Z,17.79
2022-08-19T23:37:25.290Z,17.96
2022-08-19T23:39:54.228Z,17.89
2022-08-19T23:42:21.762Z,18.13
2022-08-19T23:44:52.150Z,17.89
2022-08-19T23:47:21.107Z,17.83
2022-08-19T23:49:48.924Z,17.78
2022-08-19T23:52:16.454Z,17.66
2022-08-19T23:54:44.181Z,17.81
2022-08-19T23:57:14.368Z,17.56
2022-08-19T23:59:45.062Z,17.56
